Kaprifol — 5BXX2 — position and weather

sailwx.info

Track history (hours):
 
Tides and Currents Weather Stations Pressure Air Temp Water Temp Dewpoint Dewpoint Depression Visibility Wind Speed Wind Dir Waves Ship Positions

Kaprifol

Last reported at 2015-Mar-30 19:33 UTC. Time now 2015-Mar-30 20:02 UTC.
Position N 58°10' E 010°52'.

Length 90 m; draft 4.5 m.

Type: Tanker. MMSI: 210445000.

Date/timePositionNaut miles runAvg speedWind from/ knotsBaromVisibWave heightAir tempDewpointWater temp
2015-Mar-30 19:33N 58°10' E 010°52'7 7.1
2015-Mar-30 18:33N 58°03' E 010°56'8 8.2
2015-Mar-30 17:33N 57°56' E 011°01'1110.3
2015-Mar-30 16:32N 57°46' E 011°08'1111.1
2015-Mar-30 15:33N 57°36' E 011°17'10 9.9
2015-Mar-30 14:32N 57°28' E 011°27'9 9.2
2015-Mar-30 13:33N 57°19' E 011°33'10 9.3
2015-Mar-30 12:27N 57°09' E 011°39'18 9.7
2015-Mar-30 10:33N 56°52' E 011°51'10 9.9
2015-Mar-30 09:33N 56°43' E 011°58'28 9.4
2015-Mar-30 06:33N 56°16' E 012°11'1010.1
2015-Mar-30 05:33N 56°10' E 012°26'10 9.7
2015-Mar-30 04:33N 56°04' E 012°39'9 9.5
2015-Mar-30 03:33N 55°55' E 012°44'9 9.2
2015-Mar-30 02:33N 55°46' E 012°42'9 8.9
2015-Mar-30 01:33N 55°37' E 012°42'9 9.2
2015-Mar-30 00:33N 55°28' E 012°42'1111.1
2015-Mar-29 23:33N 55°16' E 012°40'1211.3
2015-Mar-29 22:30N 55°05' E 012°41'1410.2
2015-Mar-29 21:04N 54°51' E 012°32'16 0.8
2015-Mar-29 01:28N 54°38' E 012°16'6 5.8
2015-Mar-29 00:21N 54°32' E 012°16'4 5.4
2015-Mar-28 23:33N 54°28' E 012°14'6 5.7
2015-Mar-28 22:31N 54°23' E 012°08'6 6.5
2015-Mar-28 21:33N 54°17' E 012°05'7 6.9
2015-Mar-28 20:33N 54°10' E 012°06'1 0.7
2015-Mar-28 18:30N 54°10' E 012°08'0 0.0
2015-Mar-28 15:27N 54°10' E 012°08'0 0.0
2015-Mar-28 14:27N 54°10' E 012°08'0 0.0
2015-Mar-28 13:33N 54°10' E 012°08'0 0.0
2015-Mar-28 12:33N 54°10' E 012°08'0 0.0
2015-Mar-28 11:33N 54°10' E 012°08'1 1.4
2015-Mar-28 10:33N 54°10' E 012°06'5 4.9
2015-Mar-28 09:33N 54°13' E 012°00'0 0.3
2015-Mar-28 08:11N 54°13' E 011°60'0 0.0
2015-Mar-28 06:26N 54°13' E 011°60'0 0.0
2015-Mar-28 05:32N 54°13' E 011°60'0 0.0
2015-Mar-28 04:29N 54°13' E 011°60'0 0.0
2015-Mar-28 02:32N 54°13' E 011°60'0 0.0
2015-Mar-28 01:11N 54°13' E 011°60'0 0.0
2015-Mar-28 00:20N 54°13' E 011°60'0 0.6
2015-Mar-27 23:33N 54°13' E 012°00'10 9.9
2015-Mar-27 22:34N 54°22' E 012°05'10 9.8
2015-Mar-27 21:34N 54°31' E 012°12'24 1.4
2015-Mar-27 04:33N 54°55' E 012°01'20 2.6
2015-Mar-26 20:33N 54°36' E 012°17'1010.4
2015-Mar-26 19:33N 54°26' E 012°13'1110.6
2015-Mar-26 18:33N 54°17' E 012°05'7 5.9
2015-Mar-26 17:17N 54°10' E 012°08'0 0.0
2015-Mar-26 16:29N 54°10' E 012°08'0 0.0
2015-Mar-26 15:05N 54°10' E 012°08'0 0.0
2015-Mar-26 14:32N 54°10' E 012°08'0 0.0
2015-Mar-26 13:23N 54°10' E 012°08'0 0.0
2015-Mar-26 12:32N 54°10' E 012°08'0 0.0
2015-Mar-26 11:26N 54°10' E 012°08'0 0.0
2015-Mar-26 09:32N 54°10' E 012°08'6 6.1
2015-Mar-26 08:33N 54°15' E 012°03'1111.1
2015-Mar-26 07:34N 54°25' E 011°60'1010.1
2015-Mar-26 06:34N 54°33' E 012°12'22 0.9
2015-Mar-25 05:33N 54°54' E 012°03'8 7.4
2015-Mar-25 04:28N 54°48' E 012°13'8 8.8
2015-Mar-25 03:33N 54°41' E 012°16'8 8.3
2015-Mar-25 02:33N 54°32' E 012°17'9 9.2
2015-Mar-25 01:33N 54°24' E 012°10'9 9.0
2015-Mar-25 00:33N 54°16' E 012°04'6 6.2
2015-Mar-24 23:30N 54°10' E 012°08'0 0.0
2015-Mar-24 22:33N 54°10' E 012°08'0 0.0
2015-Mar-24 21:09N 54°10' E 012°08'0 0.0
2015-Mar-24 20:27N 54°10' E 012°08'0 0.0
2015-Mar-24 19:21N 54°10' E 012°08'0 0.0
2015-Mar-24 18:18N 54°10' E 012°08'0 0.0
2015-Mar-24 17:21N 54°10' E 012°08'0 0.0
2015-Mar-24 16:24N 54°10' E 012°08'0 0.0
2015-Mar-24 15:30N 54°10' E 012°08'0 0.0
2015-Mar-24 14:09N 54°10' E 012°08'2 3.2
2015-Mar-24 13:34N 54°11' E 012°06'10 9.7
2015-Mar-24 12:33N 54°19' E 011°59'7 7.4
2015-Mar-24 11:33N 54°26' E 012°04'8 8.2
2015-Mar-24 10:33N 54°32' E 012°13'7 7.0
2015-Mar-24 09:33N 54°38' E 012°19'7 7.1
2015-Mar-24 08:33N 54°42' E 012°29'7 7.0
2015-Mar-24 07:33N 54°47' E 012°39'23 7.5
2015-Mar-24 04:34N 55°09' E 012°38'8 7.9
2015-Mar-24 03:33N 55°17' E 012°38'8 7.9
2015-Mar-24 02:33N 55°25' E 012°40'7 7.5
2015-Mar-24 01:34N 55°32' E 012°42'1212.1
2015-Mar-24 00:33N 55°45' E 012°42'1010.4
2015-Mar-23 23:34N 55°55' E 012°38'1210.6
2015-Mar-23 22:24N 56°07' E 012°32'2410.7
2015-Mar-23 20:11N 56°23' E 012°01'810.8
2015-Mar-23 19:28N 56°31' E 011°58'1010.6
2015-Mar-23 18:33N 56°40' E 011°54'1111.1
2015-Mar-23 17:33N 56°51' E 011°48'1110.9
2015-Mar-23 16:33N 57°01' E 011°42'1010.5
2015-Mar-23 15:34N 57°11' E 011°35'1110.6
2015-Mar-23 14:33N 57°21' E 011°28'1010.2
2015-Mar-23 13:34N 57°30' E 011°19'1010.3
2015-Mar-23 12:34N 57°37' E 011°05'1010.4
2015-Mar-23 11:34N 57°44' E 010°51'1111.1
2015-Mar-23 10:33N 57°47' E 010°31'1212.0
2015-Mar-23 09:30N 57°46' E 010°08'1511.8
2015-Mar-23 08:16N 57°45' E 009°41'912.0
2015-Mar-23 07:32N 57°44' E 009°25'11310.2
2015-Mar-22 20:29N 58°00' E 005°54'33 8.0
2015-Mar-22 16:22N 58°26' E 005°16'16 8.7
2015-Mar-22 14:29N 58°42' E 005°22'8 8.7
2015-Mar-22 13:34N 58°50' E 005°27'9 8.7
2015-Mar-22 12:33N 58°58' E 005°33'4 4.0
2015-Mar-22 11:33N 59°01' E 005°37'0 0.0
2015-Mar-22 10:33N 59°01' E 005°37'0 0.0
2015-Mar-22 09:33N 59°01' E 005°37'0 0.0
2015-Mar-22 08:33N 59°01' E 005°37'0 0.0
2015-Mar-22 07:33N 59°01' E 005°37'0 0.0
2015-Mar-22 06:33N 59°01' E 005°37'2 2.2
2015-Mar-22 05:33N 59°03' E 005°35'1010.0
2015-Mar-22 04:33N 59°10' E 005°20'10 9.6
2015-Mar-22 03:33N 59°20' E 005°19'1 0.9
2015-Mar-22 02:31N 59°20' E 005°18'0 0.0
2015-Mar-22 01:30N 59°20' E 005°18'0 0.0
2015-Mar-21 16:21N 59°20' E 005°18'8 0.4
2015-Mar-20 21:26N 59°13' E 005°21'5 5.4
2015-Mar-20 20:34N 59°08' E 005°21'  
Track history (hours):
 
Tides and Currents Weather Stations Pressure Air Temp Water Temp Dewpoint Dewpoint Depression Visibility Wind Speed Wind Dir Waves Ship Positions

Kaprifol

Last reported at 2015-Mar-30 19:33 UTC. Time now 2015-Mar-30 20:02 UTC.
Position N 58°10' E 010°52'.

Length 90 m; draft 4.5 m.

Type: Tanker. MMSI: 210445000.

Date/timePositionNaut miles runAvg speedWind from/ knotsBaromVisibWave heightAir tempDewpointWater temp
2015-Mar-30 19:33N 58°10' E 010°52'7 7.1
2015-Mar-30 18:33N 58°03' E 010°56'8 8.2
2015-Mar-30 17:33N 57°56' E 011°01'1110.3
2015-Mar-30 16:32N 57°46' E 011°08'1111.1
2015-Mar-30 15:33N 57°36' E 011°17'10 9.9
2015-Mar-30 14:32N 57°28' E 011°27'9 9.2
2015-Mar-30 13:33N 57°19' E 011°33'10 9.3
2015-Mar-30 12:27N 57°09' E 011°39'18 9.7
2015-Mar-30 10:33N 56°52' E 011°51'10 9.9
2015-Mar-30 09:33N 56°43' E 011°58'28 9.4
2015-Mar-30 06:33N 56°16' E 012°11'1010.1
2015-Mar-30 05:33N 56°10' E 012°26'10 9.7
2015-Mar-30 04:33N 56°04' E 012°39'9 9.5
2015-Mar-30 03:33N 55°55' E 012°44'9 9.2
2015-Mar-30 02:33N 55°46' E 012°42'9 8.9
2015-Mar-30 01:33N 55°37' E 012°42'9 9.2
2015-Mar-30 00:33N 55°28' E 012°42'1111.1
2015-Mar-29 23:33N 55°16' E 012°40'1211.3
2015-Mar-29 22:30N 55°05' E 012°41'1410.2
2015-Mar-29 21:04N 54°51' E 012°32'16 0.8
2015-Mar-29 01:28N 54°38' E 012°16'6 5.8
2015-Mar-29 00:21N 54°32' E 012°16'4 5.4
2015-Mar-28 23:33N 54°28' E 012°14'6 5.7
2015-Mar-28 22:31N 54°23' E 012°08'6 6.5
2015-Mar-28 21:33N 54°17' E 012°05'7 6.9
2015-Mar-28 20:33N 54°10' E 012°06'1 0.7
2015-Mar-28 18:30N 54°10' E 012°08'0 0.0
2015-Mar-28 15:27N 54°10' E 012°08'0 0.0
2015-Mar-28 14:27N 54°10' E 012°08'0 0.0
2015-Mar-28 13:33N 54°10' E 012°08'0 0.0
2015-Mar-28 12:33N 54°10' E 012°08'0 0.0
2015-Mar-28 11:33N 54°10' E 012°08'1 1.4
2015-Mar-28 10:33N 54°10' E 012°06'5 4.9
2015-Mar-28 09:33N 54°13' E 012°00'0 0.3
2015-Mar-28 08:11N 54°13' E 011°60'0 0.0
2015-Mar-28 06:26N 54°13' E 011°60'0 0.0
2015-Mar-28 05:32N 54°13' E 011°60'0 0.0
2015-Mar-28 04:29N 54°13' E 011°60'0 0.0
2015-Mar-28 02:32N 54°13' E 011°60'0 0.0
2015-Mar-28 01:11N 54°13' E 011°60'0 0.0
2015-Mar-28 00:20N 54°13' E 011°60'0 0.6
2015-Mar-27 23:33N 54°13' E 012°00'10 9.9
2015-Mar-27 22:34N 54°22' E 012°05'10 9.8
2015-Mar-27 21:34N 54°31' E 012°12'24 1.4
2015-Mar-27 04:33N 54°55' E 012°01'20 2.6
2015-Mar-26 20:33N 54°36' E 012°17'1010.4
2015-Mar-26 19:33N 54°26' E 012°13'1110.6
2015-Mar-26 18:33N 54°17' E 012°05'7 5.9
2015-Mar-26 17:17N 54°10' E 012°08'0 0.0
2015-Mar-26 16:29N 54°10' E 012°08'0 0.0
2015-Mar-26 15:05N 54°10' E 012°08'0 0.0
2015-Mar-26 14:32N 54°10' E 012°08'0 0.0
2015-Mar-26 13:23N 54°10' E 012°08'0 0.0
2015-Mar-26 12:32N 54°10' E 012°08'0 0.0
2015-Mar-26 11:26N 54°10' E 012°08'0 0.0
2015-Mar-26 09:32N 54°10' E 012°08'6 6.1
2015-Mar-26 08:33N 54°15' E 012°03'1111.1
2015-Mar-26 07:34N 54°25' E 011°60'1010.1
2015-Mar-26 06:34N 54°33' E 012°12'22 0.9
2015-Mar-25 05:33N 54°54' E 012°03'8 7.4
2015-Mar-25 04:28N 54°48' E 012°13'8 8.8
2015-Mar-25 03:33N 54°41' E 012°16'8 8.3
2015-Mar-25 02:33N 54°32' E 012°17'9 9.2
2015-Mar-25 01:33N 54°24' E 012°10'9 9.0
2015-Mar-25 00:33N 54°16' E 012°04'6 6.2
2015-Mar-24 23:30N 54°10' E 012°08'0 0.0
2015-Mar-24 22:33N 54°10' E 012°08'0 0.0
2015-Mar-24 21:09N 54°10' E 012°08'0 0.0
2015-Mar-24 20:27N 54°10' E 012°08'0 0.0
2015-Mar-24 19:21N 54°10' E 012°08'0 0.0
2015-Mar-24 18:18N 54°10' E 012°08'0 0.0
2015-Mar-24 17:21N 54°10' E 012°08'0 0.0
2015-Mar-24 16:24N 54°10' E 012°08'0 0.0
2015-Mar-24 15:30N 54°10' E 012°08'0 0.0
2015-Mar-24 14:09N 54°10' E 012°08'2 3.2
2015-Mar-24 13:34N 54°11' E 012°06'10 9.7
2015-Mar-24 12:33N 54°19' E 011°59'7 7.4
2015-Mar-24 11:33N 54°26' E 012°04'8 8.2
2015-Mar-24 10:33N 54°32' E 012°13'7 7.0
2015-Mar-24 09:33N 54°38' E 012°19'7 7.1
2015-Mar-24 08:33N 54°42' E 012°29'7 7.0
2015-Mar-24 07:33N 54°47' E 012°39'23 7.5
2015-Mar-24 04:34N 55°09' E 012°38'8 7.9
2015-Mar-24 03:33N 55°17' E 012°38'8 7.9
2015-Mar-24 02:33N 55°25' E 012°40'7 7.5
2015-Mar-24 01:34N 55°32' E 012°42'1212.1
2015-Mar-24 00:33N 55°45' E 012°42'1010.4
2015-Mar-23 23:34N 55°55' E 012°38'1210.6
2015-Mar-23 22:24N 56°07' E 012°32'2410.7
2015-Mar-23 20:11N 56°23' E 012°01'810.8
2015-Mar-23 19:28N 56°31' E 011°58'1010.6
2015-Mar-23 18:33N 56°40' E 011°54'1111.1
2015-Mar-23 17:33N 56°51' E 011°48'1110.9
2015-Mar-23 16:33N 57°01' E 011°42'1010.5
2015-Mar-23 15:34N 57°11' E 011°35'1110.6
2015-Mar-23 14:33N 57°21' E 011°28'1010.2
2015-Mar-23 13:34N 57°30' E 011°19'1010.3
2015-Mar-23 12:34N 57°37' E 011°05'1010.4
2015-Mar-23 11:34N 57°44' E 010°51'1111.1
2015-Mar-23 10:33N 57°47' E 010°31'1212.0
2015-Mar-23 09:30N 57°46' E 010°08'1511.8
2015-Mar-23 08:16N 57°45' E 009°41'912.0
2015-Mar-23 07:32N 57°44' E 009°25'11310.2
2015-Mar-22 20:29N 58°00' E 005°54'33 8.0
2015-Mar-22 16:22N 58°26' E 005°16'16 8.7
2015-Mar-22 14:29N 58°42' E 005°22'8 8.7
2015-Mar-22 13:34N 58°50' E 005°27'9 8.7
2015-Mar-22 12:33N 58°58' E 005°33'4 4.0
2015-Mar-22 11:33N 59°01' E 005°37'0 0.0
2015-Mar-22 10:33N 59°01' E 005°37'0 0.0
2015-Mar-22 09:33N 59°01' E 005°37'0 0.0
2015-Mar-22 08:33N 59°01' E 005°37'0 0.0
2015-Mar-22 07:33N 59°01' E 005°37'0 0.0
2015-Mar-22 06:33N 59°01' E 005°37'2 2.2
2015-Mar-22 05:33N 59°03' E 005°35'1010.0
2015-Mar-22 04:33N 59°10' E 005°20'10 9.6
2015-Mar-22 03:33N 59°20' E 005°19'1 0.9
2015-Mar-22 02:31N 59°20' E 005°18'0 0.0
2015-Mar-22 01:30N 59°20' E 005°18'0 0.0
2015-Mar-21 16:21N 59°20' E 005°18'8 0.4
2015-Mar-20 21:26N 59°13' E 005°21'5 5.4
2015-Mar-20 20:34N 59°08' E 005°21'  

Dump ship's entire track history